sensor_id;sensor_type;location;lat;lon;timestamp;temperature;humidity
5492;DHT22;2768;53.540;10.224;2023-01-05T00:01:20;10.00;1.00
5492;DHT22;2768;53.540;10.224;2023-01-05T00:07:14;9.80;1.00
5492;DHT22;2768;53.540;10.224;2023-01-05T00:13:08;9.70;1.00
5492;DHT22;2768;53.540;10.224;2023-01-05T00:19:20;9.70;1.00
5492;DHT22;2768;53.540;10.224;2023-01-05T00:25:32;9.80;1.00
5492;DHT22;2768;53.540;10.224;2023-01-05T00:31:26;9.80;1.00
5492;DHT22;2768;53.540;10.224;2023-01-05T00:37:23;9.80;1.00
5492;DHT22;2768;53.540;10.224;2023-01-05T00:43:17;9.80;1.00
5492;DHT22;2768;53.540;10.224;2023-01-05T00:49:10;9.70;1.00
5492;DHT22;2768;53.540;10.224;2023-01-05T00:55:07;9.70;1.00
5492;DHT22;2768;53.540;10.224;2023-01-05T01:01:00;9.70;1.00
5492;DHT22;2768;53.540;10.224;2023-01-05T01:06:54;9.70;1.00
5492;DHT22;2768;53.540;10.224;2023-01-05T01:12:49;9.70;1.00
5492;DHT22;2768;53.540;10.224;2023-01-05T01:18:44;9.70;1.00
5492;DHT22;2768;53.540;10.224;2023-01-05T01:24:38;9.70;1.00
5492;DHT22;2768;53.540;10.224;2023-01-05T01:30:33;9.70;1.00
5492;DHT22;2768;53.540;10.224;2023-01-05T01:36:26;9.70;1.00
5492;DHT22;2768;53.540;10.224;2023-01-05T01:42:20;9.70;1.00
5492;DHT22;2768;53.540;10.224;2023-01-05T01:48:17;9.70;1.00
5492;DHT22;2768;53.540;10.224;2023-01-05T01:54:14;9.70;1.00
5492;DHT22;2768;53.540;10.224;2023-01-05T02:00:10;9.70;1.00
5492;DHT22;2768;53.540;10.224;2023-01-05T02:06:10;9.70;1.00
5492;DHT22;2768;53.540;10.224;2023-01-05T02:12:08;9.70;1.00
5492;DHT22;2768;53.540;10.224;2023-01-05T02:18:19;9.70;1.00
5492;DHT22;2768;53.540;10.224;2023-01-05T02:24:48;9.70;1.00
5492;DHT22;2768;53.540;10.224;2023-01-05T02:30:57;9.70;1.00
5492;DHT22;2768;53.540;10.224;2023-01-05T02:37:06;9.70;1.00
5492;DHT22;2768;53.540;10.224;2023-01-05T02:43:03;9.60;1.00
5492;DHT22;2768;53.540;10.224;2023-01-05T02:49:01;9.60;1.00
5492;DHT22;2768;53.540;10.224;2023-01-05T02:54:59;9.50;1.00
5492;DHT22;2768;53.540;10.224;2023-01-05T03:00:59;9.40;1.00
5492;DHT22;2768;53.540;10.224;2023-01-05T03:06:59;9.40;1.00
5492;DHT22;2768;53.540;10.224;2023-01-05T03:12:57;9.40;1.00
5492;DHT22;2768;53.540;10.224;2023-01-05T03:19:13;9.30;1.00
5492;DHT22;2768;53.540;10.224;2023-01-05T03:25:26;9.30;1.00
5492;DHT22;2768;53.540;10.224;2023-01-05T03:31:45;9.30;1.00
5492;DHT22;2768;53.540;10.224;2023-01-05T03:38:04;9.30;1.00
5492;DHT22;2768;53.540;10.224;2023-01-05T03:44:08;9.30;1.00
5492;DHT22;2768;53.540;10.224;2023-01-05T03:50:04;9.30;1.00
5492;DHT22;2768;53.540;10.224;2023-01-05T03:55:58;9.30;1.00
5492;DHT22;2768;53.540;10.224;2023-01-05T04:01:53;9.20;1.00
5492;DHT22;2768;53.540;10.224;2023-01-05T04:07:47;9.10;1.00
5492;DHT22;2768;53.540;10.224;2023-01-05T04:13:40;9.10;1.00
5492;DHT22;2768;53.540;10.224;2023-01-05T04:19:36;9.10;1.00
5492;DHT22;2768;53.540;10.224;2023-01-05T04:25:29;9.10;1.00
5492;DHT22;2768;53.540;10.224;2023-01-05T04:31:35;9.10;1.00
5492;DHT22;2768;53.540;10.224;2023-01-05T04:37:31;9.00;1.00
5492;DHT22;2768;53.540;10.224;2023-01-05T04:43:25;8.90;1.00
5492;DHT22;2768;53.540;10.224;2023-01-05T04:49:22;8.80;1.00
5492;DHT22;2768;53.540;10.224;2023-01-05T04:55:18;8.70;1.00
5492;DHT22;2768;53.540;10.224;2023-01-05T05:01:12;8.70;1.00
5492;DHT22;2768;53.540;10.224;2023-01-05T05:07:07;8.70;1.00
5492;DHT22;2768;53.540;10.224;2023-01-05T05:13:02;8.70;1.00
5492;DHT22;2768;53.540;10.224;2023-01-05T05:18:55;8.60;1.00
5492;DHT22;2768;53.540;10.224;2023-01-05T05:24:51;8.60;1.00
5492;DHT22;2768;53.540;10.224;2023-01-05T05:30:47;8.60;1.00
5492;DHT22;2768;53.540;10.224;2023-01-05T05:36:40;8.60;1.00
5492;DHT22;2768;53.540;10.224;2023-01-05T05:42:33;8.60;1.00
5492;DHT22;2768;53.540;10.224;2023-01-05T05:48:28;8.60;1.00
5492;DHT22;2768;53.540;10.224;2023-01-05T05:54:22;8.60;1.00
5492;DHT22;2768;53.540;10.224;2023-01-05T06:00:16;8.60;1.00
5492;DHT22;2768;53.540;10.224;2023-01-05T06:06:10;8.60;1.00
5492;DHT22;2768;53.540;10.224;2023-01-05T06:12:04;8.60;1.00
5492;DHT22;2768;53.540;10.224;2023-01-05T06:17:57;8.60;1.00
5492;DHT22;2768;53.540;10.224;2023-01-05T06:23:52;8.60;1.00
5492;DHT22;2768;53.540;10.224;2023-01-05T06:29:45;8.70;1.00
5492;DHT22;2768;53.540;10.224;2023-01-05T06:35:39;8.60;1.00
5492;DHT22;2768;53.540;10.224;2023-01-05T06:41:34;8.70;1.00
5492;DHT22;2768;53.540;10.224;2023-01-05T06:47:27;8.70;1.00
5492;DHT22;2768;53.540;10.224;2023-01-05T06:53:20;8.70;1.00
5492;DHT22;2768;53.540;10.224;2023-01-05T06:59:15;8.70;1.00
5492;DHT22;2768;53.540;10.224;2023-01-05T07:05:09;8.60;1.00
5492;DHT22;2768;53.540;10.224;2023-01-05T07:11:02;8.70;1.00
5492;DHT22;2768;53.540;10.224;2023-01-05T07:16:57;8.60;1.00
5492;DHT22;2768;53.540;10.224;2023-01-05T07:22:51;8.70;1.00
5492;DHT22;2768;53.540;10.224;2023-01-05T07:28:45;8.70;1.00
5492;DHT22;2768;53.540;10.224;2023-01-05T07:34:39;8.70;1.00
5492;DHT22;2768;53.540;10.224;2023-01-05T07:40:45;8.70;1.00
5492;DHT22;2768;53.540;10.224;2023-01-05T07:46:39;8.70;1.00
5492;DHT22;2768;53.540;10.224;2023-01-05T07:52:34;8.60;1.00
5492;DHT22;2768;53.540;10.224;2023-01-05T07:58:28;8.70;1.00
5492;DHT22;2768;53.540;10.224;2023-01-05T08:04:21;8.70;1.00
5492;DHT22;2768;53.540;10.224;2023-01-05T08:10:16;8.70;1.00
5492;DHT22;2768;53.540;10.224;2023-01-05T08:16:22;8.60;1.00
5492;DHT22;2768;53.540;10.224;2023-01-05T08:22:16;8.60;1.00
5492;DHT22;2768;53.540;10.224;2023-01-05T08:28:10;8.70;1.00
5492;DHT22;2768;53.540;10.224;2023-01-05T08:34:04;8.60;1.00
5492;DHT22;2768;53.540;10.224;2023-01-05T08:39:58;8.60;1.00
5492;DHT22;2768;53.540;10.224;2023-01-05T08:45:53;8.70;1.00
5492;DHT22;2768;53.540;10.224;2023-01-05T08:51:46;8.60;1.00
5492;DHT22;2768;53.540;10.224;2023-01-05T08:57:39;8.50;1.00
5492;DHT22;2768;53.540;10.224;2023-01-05T09:03:34;8.40;1.00
5492;DHT22;2768;53.540;10.224;2023-01-05T09:09:28;8.40;1.00
5492;DHT22;2768;53.540;10.224;2023-01-05T09:15:22;8.30;1.00
5492;DHT22;2768;53.540;10.224;2023-01-05T09:21:17;8.20;1.00
5492;DHT22;2768;53.540;10.224;2023-01-05T09:27:10;8.20;1.00
5492;DHT22;2768;53.540;10.224;2023-01-05T09:33:04;8.30;1.00
5492;DHT22;2768;53.540;10.224;2023-01-05T09:38:59;8.20;1.00
5492;DHT22;2768;53.540;10.224;2023-01-05T09:44:55;8.30;1.00
5492;DHT22;2768;53.540;10.224;2023-01-05T09:50:51;8.30;1.00
5492;DHT22;2768;53.540;10.224;2023-01-05T09:56:47;8.70;1.00
5492;DHT22;2768;53.540;10.224;2023-01-05T10:03:04;8.70;1.00
5492;DHT22;2768;53.540;10.224;2023-01-05T10:09:05;8.60;1.00
5492;DHT22;2768;53.540;10.224;2023-01-05T10:15:05;8.60;1.00
5492;DHT22;2768;53.540;10.224;2023-01-05T10:21:05;8.80;1.00
5492;DHT22;2768;53.540;10.224;2023-01-05T10:27:06;8.80;1.00
5492;DHT22;2768;53.540;10.224;2023-01-05T10:33:24;8.60;1.00
5492;DHT22;2768;53.540;10.224;2023-01-05T10:39:51;8.90;1.00
5492;DHT22;2768;53.540;10.224;2023-01-05T10:45:47;9.30;1.00
5492;DHT22;2768;53.540;10.224;2023-01-05T10:52:03;9.30;1.00
5492;DHT22;2768;53.540;10.224;2023-01-05T10:57:58;9.70;1.00
5492;DHT22;2768;53.540;10.224;2023-01-05T11:03:55;9.60;1.00
5492;DHT22;2768;53.540;10.224;2023-01-05T11:10:21;9.70;1.00
5492;DHT22;2768;53.540;10.224;2023-01-05T11:16:16;10.20;1.00
5492;DHT22;2768;53.540;10.224;2023-01-05T11:22:27;10.40;1.00
5492;DHT22;2768;53.540;10.224;2023-01-05T11:28:22;10.40;1.00
5492;DHT22;2768;53.540;10.224;2023-01-05T11:34:29;11.00;99.90
5492;DHT22;2768;53.540;10.224;2023-01-05T11:40:28;10.40;99.90
5492;DHT22;2768;53.540;10.224;2023-01-05T11:46:24;9.90;99.90
5492;DHT22;2768;53.540;10.224;2023-01-05T11:52:26;10.10;1.00
5492;DHT22;2768;53.540;10.224;2023-01-05T11:58:22;9.70;1.00
5492;DHT22;2768;53.540;10.224;2023-01-05T12:04:35;9.40;1.00
5492;DHT22;2768;53.540;10.224;2023-01-05T12:10:49;9.70;1.00
5492;DHT22;2768;53.540;10.224;2023-01-05T12:16:50;9.60;1.00
5492;DHT22;2768;53.540;10.224;2023-01-05T12:23:09;9.40;1.00
5492;DHT22;2768;53.540;10.224;2023-01-05T12:29:19;9.30;1.00
5492;DHT22;2768;53.540;10.224;2023-01-05T12:35:50;9.20;1.00
5492;DHT22;2768;53.540;10.224;2023-01-05T12:42:00;9.10;1.00
5492;DHT22;2768;53.540;10.224;2023-01-05T12:47:57;9.20;1.00
5492;DHT22;2768;53.540;10.224;2023-01-05T12:53:56;9.20;1.00
5492;DHT22;2768;53.540;10.224;2023-01-05T12:59:57;9.00;1.00
5492;DHT22;2768;53.540;10.224;2023-01-05T13:05:56;9.00;1.00
5492;DHT22;2768;53.540;10.224;2023-01-05T13:11:56;8.90;1.00
5492;DHT22;2768;53.540;10.224;2023-01-05T13:17:56;8.80;1.00
5492;DHT22;2768;53.540;10.224;2023-01-05T13:23:54;8.70;1.00
5492;DHT22;2768;53.540;10.224;2023-01-05T13:29:49;8.70;1.00
5492;DHT22;2768;53.540;10.224;2023-01-05T13:35:59;8.80;1.00
5492;DHT22;2768;53.540;10.224;2023-01-05T13:42:21;8.80;1.00
5492;DHT22;2768;53.540;10.224;2023-01-05T13:54:57;8.70;1.00
5492;DHT22;2768;53.540;10.224;2023-01-05T14:00:55;8.70;1.00
5492;DHT22;2768;53.540;10.224;2023-01-05T14:06:51;8.90;1.00
5492;DHT22;2768;53.540;10.224;2023-01-05T14:12:49;8.90;1.00
5492;DHT22;2768;53.540;10.224;2023-01-05T14:18:50;8.80;1.00
5492;DHT22;2768;53.540;10.224;2023-01-05T14:24:44;8.70;1.00
5492;DHT22;2768;53.540;10.224;2023-01-05T14:30:41;8.70;1.00
5492;DHT22;2768;53.540;10.224;2023-01-05T14:36:36;8.70;1.00
5492;DHT22;2768;53.540;10.224;2023-01-05T14:42:34;8.70;1.00
5492;DHT22;2768;53.540;10.224;2023-01-05T14:48:34;8.70;1.00
5492;DHT22;2768;53.540;10.224;2023-01-05T14:55:08;8.70;1.00
5492;DHT22;2768;53.540;10.224;2023-01-05T15:01:27;8.70;1.00
5492;DHT22;2768;53.540;10.224;2023-01-05T15:07:32;8.60;1.00
5492;DHT22;2768;53.540;10.224;2023-01-05T15:14:15;8.60;1.00
5492;DHT22;2768;53.540;10.224;2023-01-05T15:20:56;8.60;1.00
5492;DHT22;2768;53.540;10.224;2023-01-05T15:27:09;8.60;1.00
5492;DHT22;2768;53.540;10.224;2023-01-05T15:33:11;8.60;1.00
5492;DHT22;2768;53.540;10.224;2023-01-05T15:39:31;8.50;1.00
5492;DHT22;2768;53.540;10.224;2023-01-05T15:45:29;8.60;1.00
5492;DHT22;2768;53.540;10.224;2023-01-05T15:51:25;8.60;1.00
5492;DHT22;2768;53.540;10.224;2023-01-05T15:57:28;8.60;1.00
5492;DHT22;2768;53.540;10.224;2023-01-05T16:03:26;8.60;1.00
5492;DHT22;2768;53.540;10.224;2023-01-05T16:09:24;8.50;1.00
5492;DHT22;2768;53.540;10.224;2023-01-05T16:15:21;8.50;1.00
5492;DHT22;2768;53.540;10.224;2023-01-05T16:21:22;8.60;1.00
5492;DHT22;2768;53.540;10.224;2023-01-05T16:27:16;8.60;1.00
5492;DHT22;2768;53.540;10.224;2023-01-05T16:33:26;8.60;1.00
5492;DHT22;2768;53.540;10.224;2023-01-05T16:39:24;8.60;1.00
5492;DHT22;2768;53.540;10.224;2023-01-05T16:45:21;8.60;1.00
5492;DHT22;2768;53.540;10.224;2023-01-05T16:51:19;8.60;1.00
5492;DHT22;2768;53.540;10.224;2023-01-05T16:57:30;8.60;1.00
5492;DHT22;2768;53.540;10.224;2023-01-05T17:03:28;8.50;1.00
5492;DHT22;2768;53.540;10.224;2023-01-05T17:09:25;8.50;1.00
5492;DHT22;2768;53.540;10.224;2023-01-05T17:15:22;8.40;1.00
5492;DHT22;2768;53.540;10.224;2023-01-05T17:21:18;8.40;1.00
5492;DHT22;2768;53.540;10.224;2023-01-05T17:27:14;8.40;1.00
5492;DHT22;2768;53.540;10.224;2023-01-05T17:33:07;8.50;1.00
5492;DHT22;2768;53.540;10.224;2023-01-05T17:39:01;8.50;1.00
5492;DHT22;2768;53.540;10.224;2023-01-05T17:44:56;8.50;1.00
5492;DHT22;2768;53.540;10.224;2023-01-05T17:50:50;8.60;1.00
5492;DHT22;2768;53.540;10.224;2023-01-05T17:56:45;8.60;1.00
5492;DHT22;2768;53.540;10.224;2023-01-05T18:02:41;8.60;1.00
5492;DHT22;2768;53.540;10.224;2023-01-05T18:08:35;8.70;1.00
5492;DHT22;2768;53.540;10.224;2023-01-05T18:14:29;8.50;1.00
5492;DHT22;2768;53.540;10.224;2023-01-05T18:20:26;8.70;1.00
5492;DHT22;2768;53.540;10.224;2023-01-05T18:26:19;8.70;1.00
5492;DHT22;2768;53.540;10.224;2023-01-05T18:32:13;8.50;1.00
5492;DHT22;2768;53.540;10.224;2023-01-05T18:38:08;8.60;1.00
5492;DHT22;2768;53.540;10.224;2023-01-05T18:44:01;8.50;1.00
5492;DHT22;2768;53.540;10.224;2023-01-05T18:49:55;8.40;1.00
5492;DHT22;2768;53.540;10.224;2023-01-05T18:55:51;8.40;1.00
5492;DHT22;2768;53.540;10.224;2023-01-05T19:01:45;8.20;1.00
5492;DHT22;2768;53.540;10.224;2023-01-05T19:07:38;8.10;1.00
5492;DHT22;2768;53.540;10.224;2023-01-05T19:13:33;8.10;1.00
5492;DHT22;2768;53.540;10.224;2023-01-05T19:19:26;8.00;1.00
5492;DHT22;2768;53.540;10.224;2023-01-05T19:25:20;8.00;1.00
5492;DHT22;2768;53.540;10.224;2023-01-05T19:31:16;7.80;1.00
5492;DHT22;2768;53.540;10.224;2023-01-05T19:37:10;8.00;1.00
5492;DHT22;2768;53.540;10.224;2023-01-05T19:43:03;8.00;1.00
5492;DHT22;2768;53.540;10.224;2023-01-05T19:48:58;8.10;1.00
5492;DHT22;2768;53.540;10.224;2023-01-05T19:54:52;8.10;1.00
5492;DHT22;2768;53.540;10.224;2023-01-05T20:00:45;8.10;1.00
5492;DHT22;2768;53.540;10.224;2023-01-05T20:06:43;8.10;1.00
5492;DHT22;2768;53.540;10.224;2023-01-05T20:12:36;7.90;1.00
5492;DHT22;2768;53.540;10.224;2023-01-05T20:18:30;8.00;1.00
5492;DHT22;2768;53.540;10.224;2023-01-05T20:24:27;7.90;1.00
5492;DHT22;2768;53.540;10.224;2023-01-05T20:30:21;8.00;1.00
5492;DHT22;2768;53.540;10.224;2023-01-05T20:36:14;7.90;1.00
5492;DHT22;2768;53.540;10.224;2023-01-05T20:42:10;8.00;1.00
5492;DHT22;2768;53.540;10.224;2023-01-05T20:48:04;7.90;1.00
5492;DHT22;2768;53.540;10.224;2023-01-05T20:53:58;7.90;1.00
5492;DHT22;2768;53.540;10.224;2023-01-05T20:59:54;7.70;1.00
5492;DHT22;2768;53.540;10.224;2023-01-05T21:05:48;7.60;1.00
5492;DHT22;2768;53.540;10.224;2023-01-05T21:11:42;7.60;1.00
5492;DHT22;2768;53.540;10.224;2023-01-05T21:17:37;7.60;1.00
5492;DHT22;2768;53.540;10.224;2023-01-05T21:23:32;7.50;1.00
5492;DHT22;2768;53.540;10.224;2023-01-05T21:29:25;7.60;1.00
5492;DHT22;2768;53.540;10.224;2023-01-05T21:35:20;7.60;1.00
5492;DHT22;2768;53.540;10.224;2023-01-05T21:41:14;7.50;1.00
5492;DHT22;2768;53.540;10.224;2023-01-05T21:47:08;7.60;1.00
5492;DHT22;2768;53.540;10.224;2023-01-05T21:53:03;7.70;1.00
5492;DHT22;2768;53.540;10.224;2023-01-05T21:59:14;7.90;1.00
5492;DHT22;2768;53.540;10.224;2023-01-05T22:05:08;7.80;1.00
5492;DHT22;2768;53.540;10.224;2023-01-05T22:11:03;7.90;1.00
5492;DHT22;2768;53.540;10.224;2023-01-05T22:16:56;7.90;1.00
5492;DHT22;2768;53.540;10.224;2023-01-05T22:22:51;7.70;1.00
5492;DHT22;2768;53.540;10.224;2023-01-05T22:28:47;7.70;1.00
5492;DHT22;2768;53.540;10.224;2023-01-05T22:34:41;7.80;1.00
5492;DHT22;2768;53.540;10.224;2023-01-05T22:40:36;7.90;1.00
5492;DHT22;2768;53.540;10.224;2023-01-05T22:46:31;7.90;1.00
5492;DHT22;2768;53.540;10.224;2023-01-05T22:52:25;7.90;1.00
5492;DHT22;2768;53.540;10.224;2023-01-05T22:58:18;8.00;1.00
5492;DHT22;2768;53.540;10.224;2023-01-05T23:04:15;7.90;1.00
5492;DHT22;2768;53.540;10.224;2023-01-05T23:10:09;7.80;1.00
5492;DHT22;2768;53.540;10.224;2023-01-05T23:16:04;7.80;1.00
5492;DHT22;2768;53.540;10.224;2023-01-05T23:21:59;7.90;1.00
5492;DHT22;2768;53.540;10.224;2023-01-05T23:27:53;7.80;1.00
5492;DHT22;2768;53.540;10.224;2023-01-05T23:33:47;7.70;1.00
5492;DHT22;2768;53.540;10.224;2023-01-05T23:39:42;7.70;1.00
5492;DHT22;2768;53.540;10.224;2023-01-05T23:45:35;7.70;1.00
5492;DHT22;2768;53.540;10.224;2023-01-05T23:51:29;7.70;1.00
5492;DHT22;2768;53.540;10.224;2023-01-05T23:57:24;7.80;1.00
